Time;durP1;ratioP1;P1;durP2;ratioP2;P2;SDS_P1;SDS_P2;PMS_P1;PMS_P2;Temp;Humidity;BMP_temperature;BMP_pressure;BME280_temperature;BME280_humidity;BME280_pressure;Samples;Min_cycle;Max_cycle;Signal;HPM_P1;HPM_P2
2021/05/02 00:00:33;;;;;;;45.10;40.67;;;8.40;90.90;;;;;;5091854;28;20253;-76
2021/05/02 00:03:01;;;;;;;44.70;40.63;;;8.40;91.00;;;;;;5092154;28;20686;-77
2021/05/02 00:05:29;;;;;;;43.88;39.67;;;8.30;90.90;;;;;;5091508;28;20245;-76
2021/05/02 00:07:56;;;;;;;45.55;40.70;;;8.20;91.10;;;;;;5091972;28;20219;-76
2021/05/02 00:10:25;;;;;;;45.92;41.35;;;8.30;91.20;;;;;;5092097;28;20215;-76
2021/05/02 00:12:52;;;;;;;46.00;41.22;;;8.30;89.90;;;;;;5092047;28;20198;-76
2021/05/02 00:15:20;;;;;;;45.35;41.00;;;8.30;89.70;;;;;;5091717;28;20201;-76
2021/05/02 00:17:48;;;;;;;43.03;39.08;;;8.40;90.10;;;;;;5091739;28;20340;-77
2021/05/02 00:20:17;;;;;;;44.38;40.08;;;8.30;88.70;;;;;;5091839;28;20282;-77
2021/05/02 00:22:45;;;;;;;44.50;40.47;;;8.20;89.40;;;;;;5091997;28;20195;-77
2021/05/02 00:25:15;;;;;;;46.08;41.88;;;8.20;89.10;;;;;;5091920;28;20242;-77
2021/05/02 00:27:43;;;;;;;43.40;39.55;;;8.20;88.70;;;;;;5092018;28;20257;-77
2021/05/02 00:30:12;;;;;;;42.60;38.78;;;8.30;88.40;;;;;;5095240;28;20285;-77
2021/05/02 00:32:39;;;;;;;41.60;37.80;;;8.30;88.50;;;;;;5096172;28;20683;-77
2021/05/02 00:35:08;;;;;;;43.50;39.55;;;8.20;87.40;;;;;;5095790;28;20201;-77
2021/05/02 00:37:37;;;;;;;41.47;37.72;;;8.20;88.00;;;;;;5095202;28;20278;-77
2021/05/02 00:40:08;;;;;;;43.60;39.55;;;8.20;88.10;;;;;;5095610;28;20563;-76
2021/05/02 00:42:36;;;;;;;40.45;36.95;;;8.20;88.40;;;;;;5095789;28;20206;-76
2021/05/02 00:45:07;;;;;;;43.53;39.72;;;8.30;87.90;;;;;;5095788;28;20198;-77
2021/05/02 00:47:37;;;;;;;42.45;38.83;;;8.20;87.20;;;;;;5094864;28;20218;-77
2021/05/02 00:50:08;;;;;;;40.60;37.15;;;8.00;87.30;;;;;;5095396;28;20556;-77
2021/05/02 00:52:38;;;;;;;41.88;38.20;;;8.10;87.50;;;;;;5095261;28;20213;-76
2021/05/02 00:55:09;;;;;;;41.80;37.33;;;8.20;87.20;;;;;;5095352;28;20199;-76
2021/05/02 00:57:46;;;;;;;41.65;37.85;;;8.20;87.30;;;;;;5094758;28;20219;-76
2021/05/02 01:00:16;;;;;;;41.65;37.75;;;8.20;88.00;;;;;;5095129;28;20260;-76
2021/05/02 01:02:45;;;;;;;42.90;39.30;;;8.20;87.80;;;;;;5095528;28;20199;-76
2021/05/02 01:05:14;;;;;;;44.58;40.63;;;8.10;87.70;;;;;;5095032;28;20519;-75
2021/05/02 01:07:42;;;;;;;42.08;38.47;;;8.10;88.10;;;;;;5094610;28;20634;-76
2021/05/02 01:10:12;;;;;;;41.63;38.13;;;8.20;87.40;;;;;;5094906;28;20198;-76
2021/05/02 01:12:42;;;;;;;42.10;38.13;;;8.20;87.30;;;;;;5095043;28;20282;-76
2021/05/02 01:15:12;;;;;;;43.03;39.28;;;8.20;88.00;;;;;;5094937;28;20206;-76
2021/05/02 01:17:42;;;;;;;42.42;38.60;;;8.20;88.10;;;;;;5094453;28;20226;-76
2021/05/02 01:20:12;;;;;;;43.55;39.75;;;8.20;87.60;;;;;;5094831;28;20668;-76
2021/05/02 01:22:42;;;;;;;41.63;38.05;;;8.10;87.50;;;;;;5095088;28;20255;-76
2021/05/02 01:25:11;;;;;;;42.33;38.25;;;8.10;87.70;;;;;;5094816;28;20419;-76
2021/05/02 01:27:37;;;;;;;41.78;37.95;;;8.10;88.00;;;;;;5094173;28;20572;-76
2021/05/02 01:30:08;;;;;;;42.25;38.30;;;8.20;87.70;;;;;;5093966;28;20202;-76
2021/05/02 01:32:35;;;;;;;50.28;40.83;;;8.00;87.60;;;;;;5094581;28;20198;-76
2021/05/02 01:35:02;;;;;;;43.05;39.33;;;8.00;88.30;;;;;;5094391;28;20196;-76
2021/05/02 01:37:28;;;;;;;42.10;38.22;;;8.10;88.50;;;;;;5093849;28;20200;-77
2021/05/02 01:39:54;;;;;;;43.67;39.88;;;8.20;88.20;;;;;;5094258;28;20285;-77
2021/05/02 01:42:22;;;;;;;42.10;38.30;;;8.20;87.50;;;;;;5094350;28;20288;-77
2021/05/02 01:44:48;;;;;;;42.50;38.70;;;8.10;87.50;;;;;;5094203;28;20292;-77
2021/05/02 01:47:18;;;;;;;41.58;37.65;;;8.20;87.90;;;;;;5093577;28;20217;-77
2021/05/02 01:49:49;;;;;;;43.67;39.90;;;8.10;86.90;;;;;;5094238;28;20284;-77
2021/05/02 01:52:18;;;;;;;41.58;37.97;;;8.10;87.50;;;;;;5094190;28;20242;-77
2021/05/02 01:54:45;;;;;;;42.17;38.58;;;8.00;88.00;;;;;;5094394;28;20707;-77
2021/05/02 01:57:17;;;;;;;42.72;38.83;;;8.10;88.00;;;;;;5093263;28;20206;-77
2021/05/02 01:59:46;;;;;;;42.80;38.95;;;8.10;88.40;;;;;;5094131;28;20202;-77
2021/05/02 02:02:15;;;;;;;41.92;38.38;;;8.00;88.50;;;;;;5093960;28;20243;-77
2021/05/02 02:04:43;;;;;;;42.67;38.83;;;7.80;88.10;;;;;;5094036;28;20206;-77
2021/05/02 02:07:13;;;;;;;40.25;36.95;;;7.80;89.60;;;;;;5093327;28;20680;-77
2021/05/02 02:09:40;;;;;;;40.00;36.55;;;7.90;89.20;;;;;;5093761;28;20195;-77
2021/05/02 02:12:08;;;;;;;41.22;37.65;;;7.90;88.40;;;;;;5093718;28;20221;-77
2021/05/02 02:14:36;;;;;;;42.22;38.33;;;7.90;88.80;;;;;;5093785;28;20385;-78
2021/05/02 02:17:04;;;;;;;44.08;40.05;;;7.90;88.80;;;;;;5093179;28;20192;-77
2021/05/02 02:19:30;;;;;;;42.72;38.70;;;7.90;88.50;;;;;;5093647;28;20287;-77
2021/05/02 02:21:59;;;;;;;42.72;39.13;;;7.80;89.60;;;;;;5093507;28;20556;-77
2021/05/02 02:24:40;;;;;;;41.90;38.10;;;7.90;89.50;;;;;;5093665;28;20206;-77
2021/05/02 02:27:08;;;;;;;42.25;38.65;;;7.90;89.70;;;;;;5093076;28;20237;-77
2021/05/02 02:29:39;;;;;;;43.65;39.58;;;7.90;89.50;;;;;;5093079;28;20247;-77
2021/05/02 02:32:09;;;;;;;45.38;41.08;;;7.90;88.80;;;;;;5093487;28;20311;-77
2021/05/02 02:34:39;;;;;;;44.60;40.53;;;7.80;89.30;;;;;;5093198;28;20277;-77
2021/05/02 02:37:06;;;;;;;45.40;40.50;;;7.90;89.70;;;;;;5092705;28;20609;-77
2021/05/02 02:39:33;;;;;;;46.60;42.42;;;7.90;89.40;;;;;;5093259;28;20748;-77
2021/05/02 02:42:01;;;;;;;43.22;39.38;;;7.80;89.80;;;;;;5093288;28;20219;-77
2021/05/02 02:44:29;;;;;;;44.17;40.28;;;7.90;89.60;;;;;;5093195;28;20207;-77
2021/05/02 02:47:01;;;;;;;45.55;41.15;;;7.90;89.30;;;;;;5092391;28;20213;-77
2021/05/02 02:49:31;;;;;;;44.45;40.25;;;7.80;89.30;;;;;;5093097;28;20590;-77
2021/05/02 02:51:59;;;;;;;45.00;41.08;;;7.70;89.50;;;;;;5092580;28;20226;-77
2021/05/02 02:54:29;;;;;;;43.72;39.80;;;7.70;89.90;;;;;;5092955;28;20754;-77
2021/05/02 02:57:00;;;;;;;117.95;47.80;;;7.70;89.80;;;;;;5092378;28;20193;-78
2021/05/02 02:59:28;;;;;;;46.17;41.85;;;7.70;90.20;;;;;;5092967;28;20687;-77
2021/05/02 03:01:56;;;;;;;47.45;42.95;;;7.70;90.10;;;;;;5092643;28;20243;-77
2021/05/02 03:04:24;;;;;;;47.85;43.15;;;7.70;89.50;;;;;;5092951;28;20524;-76
2021/05/02 03:06:53;;;;;;;47.05;42.80;;;7.70;89.50;;;;;;5092407;28;20260;-76
2021/05/02 03:09:20;;;;;;;45.00;40.75;;;7.70;89.50;;;;;;5092622;28;20310;-77
2021/05/02 03:11:47;;;;;;;46.10;41.83;;;7.80;89.70;;;;;;5092805;28;20312;-77
2021/05/02 03:14:14;;;;;;;45.85;41.25;;;7.80;89.90;;;;;;5092504;28;20249;-77
2021/05/02 03:16:43;;;;;;;46.17;42.10;;;7.80;90.10;;;;;;5092284;28;20194;-76
2021/05/02 03:19:14;;;;;;;46.38;42.33;;;7.80;90.20;;;;;;5092689;28;20244;-77
2021/05/02 03:21:48;;;;;;;45.90;41.72;;;7.80;90.20;;;;;;5094123;28;20302;-77
2021/05/02 03:24:24;;;;;;;46.88;42.45;;;7.80;89.10;;;;;;5095549;28;20204;-76
2021/05/02 03:26:53;;;;;;;46.50;42.33;;;7.90;89.10;;;;;;5092011;28;20622;-76
2021/05/02 03:29:20;;;;;;;343.25;63.58;;;7.80;90.00;;;;;;5091993;28;20346;-77
2021/05/02 03:31:50;;;;;;;46.33;42.15;;;7.80;90.40;;;;;;5092365;28;20223;-77
2021/05/02 03:34:21;;;;;;;46.70;42.00;;;7.80;91.10;;;;;;5092368;28;20199;-77
2021/05/02 03:36:51;;;;;;;45.05;41.25;;;7.90;90.70;;;;;;5092028;28;20286;-77
2021/05/02 03:39:19;;;;;;;45.53;40.97;;;7.90;89.70;;;;;;5092316;28;20259;-77
2021/05/02 03:41:45;;;;;;;45.42;41.38;;;7.80;90.00;;;;;;5092323;28;20304;-76
2021/05/02 03:44:12;;;;;;;45.30;41.00;;;7.80;90.30;;;;;;5092381;28;20224;-77
2021/05/02 03:46:38;;;;;;;45.20;41.20;;;7.80;91.40;;;;;;5091707;28;20289;-77
2021/05/02 03:49:06;;;;;;;46.85;42.65;;;7.80;90.70;;;;;;5092075;28;20219;-77
2021/05/02 03:51:34;;;;;;;45.85;41.45;;;7.90;90.40;;;;;;5092123;28;20234;-77
2021/05/02 03:54:01;;;;;;;45.85;41.72;;;7.90;90.20;;;;;;5092121;28;20698;-77
2021/05/02 03:56:38;;;;;;;45.03;41.08;;;7.80;89.50;;;;;;5091544;28;20205;-77
2021/05/02 03:59:07;;;;;;;44.42;40.55;;;7.90;89.60;;;;;;5092188;28;20230;-77
2021/05/02 04:01:33;;;;;;;56.97;43.13;;;7.80;89.60;;;;;;5092288;28;20218;-77
2021/05/02 04:04:00;;;;;;;46.67;42.63;;;7.80;91.00;;;;;;5096172;28;20225;-77
2021/05/02 04:06:26;;;;;;;47.05;42.78;;;7.80;90.60;;;;;;5095665;28;20194;-78
2021/05/02 04:08:53;;;;;;;46.58;42.17;;;7.90;90.30;;;;;;5096038;28;20292;-77
2021/05/02 04:11:20;;;;;;;43.60;40.00;;;7.80;90.00;;;;;;5096168;28;20307;-77
2021/05/02 04:13:47;;;;;;;44.90;41.10;;;7.80;90.10;;;;;;5096145;28;20198;-77
2021/05/02 04:16:14;;;;;;;44.22;40.42;;;7.80;89.50;;;;;;5095994;28;20198;-77
2021/05/02 04:18:41;;;;;;;91.82;46.28;;;7.80;90.00;;;;;;5096165;28;20231;-78
2021/05/02 04:21:08;;;;;;;47.25;43.05;;;7.80;90.20;;;;;;5096152;28;20726;-77
2021/05/02 04:23:35;;;;;;;46.30;42.25;;;7.80;91.70;;;;;;5095978;28;20192;-77
2021/05/02 04:26:02;;;;;;;45.00;40.80;;;7.90;90.60;;;;;;5095648;28;20195;-77
2021/05/02 04:28:28;;;;;;;44.92;41.13;;;7.80;90.00;;;;;;5095488;28;20219;-79
2021/05/02 04:30:55;;;;;;;46.05;41.92;;;7.90;89.90;;;;;;5095970;28;20254;-77
2021/05/02 04:33:22;;;;;;;48.22;43.78;;;7.90;89.50;;;;;;5095690;28;20283;-78
2021/05/02 04:35:48;;;;;;;46.72;42.53;;;7.90;89.60;;;;;;5094809;28;20205;-79
2021/05/02 04:38:15;;;;;;;43.08;39.47;;;7.90;89.60;;;;;;5095780;28;20309;-77
2021/05/02 04:40:41;;;;;;;45.75;41.55;;;8.00;90.10;;;;;;5095573;28;20572;-77
2021/05/02 04:43:10;;;;;;;48.08;43.88;;;8.00;90.10;;;;;;5095573;28;20199;-77
2021/05/02 04:45:37;;;;;;;48.67;43.88;;;8.00;90.20;;;;;;5094933;28;20202;-77
2021/05/02 04:48:05;;;;;;;46.30;42.38;;;8.00;90.70;;;;;;5095047;28;20299;-77
2021/05/02 04:50:32;;;;;;;45.88;41.45;;;8.00;91.30;;;;;;5095422;28;20225;-77
2021/05/02 04:52:59;;;;;;;46.08;41.85;;;8.00;91.50;;;;;;5095292;28;20206;-77
2021/05/02 04:55:25;;;;;;;155.32;51.72;;;8.00;91.40;;;;;;5095182;28;20192;-77
2021/05/02 04:57:53;;;;;;;48.20;43.80;;;8.00;91.80;;;;;;5095115;28;20191;-77
2021/05/02 05:00:21;;;;;;;48.33;43.95;;;8.00;92.30;;;;;;5095291;28;20306;-77
2021/05/02 05:02:47;;;;;;;46.30;42.35;;;8.00;92.20;;;;;;5095159;28;20195;-77
2021/05/02 05:05:15;;;;;;;48.95;44.65;;;8.00;92.00;;;;;;5095144;28;20203;-77
2021/05/02 05:07:41;;;;;;;322.45;68.32;;;8.00;91.80;;;;;;5094519;28;20196;-77
2021/05/02 05:10:09;;;;;;;50.13;45.42;;;8.00;93.90;;;;;;5095017;28;20290;-77
2021/05/02 05:12:36;;;;;;;421.92;72.55;;;8.10;94.00;;;;;;5094983;28;20206;-77
2021/05/02 05:15:04;;;;;;;49.00;44.50;;;8.30;95.50;;;;;;5094352;28;20199;-77
2021/05/02 05:17:30;;;;;;;48.35;44.22;;;8.30;93.80;;;;;;5094299;28;20192;-77
2021/05/02 05:19:56;;;;;;;45.03;41.00;;;8.40;93.00;;;;;;5094740;28;20198;-77
2021/05/02 05:22:24;;;;;;;46.47;42.50;;;8.40;91.40;;;;;;5094858;28;20278;-77
2021/05/02 05:24:50;;;;;;;48.40;44.05;;;8.40;91.80;;;;;;5094991;28;20198;-77
2021/05/02 05:27:17;;;;;;;46.15;42.15;;;8.40;91.20;;;;;;5094296;28;20199;-77
2021/05/02 05:29:43;;;;;;;45.40;41.40;;;8.40;91.60;;;;;;5094096;28;20229;-77
2021/05/02 05:32:09;;;;;;;45.42;41.63;;;8.50;91.30;;;;;;5094495;28;20244;-77
2021/05/02 05:34:36;;;;;;;44.50;40.47;;;8.60;90.30;;;;;;5094360;28;20234;-77
2021/05/02 05:37:02;;;;;;;44.78;41.08;;;8.60;89.70;;;;;;5094014;28;20197;-77
2021/05/02 05:39:30;;;;;;;43.67;40.08;;;8.60;89.50;;;;;;5094681;28;20191;-77
2021/05/02 05:41:56;;;;;;;43.97;40.38;;;8.60;89.10;;;;;;5094549;28;20297;-76
2021/05/02 05:44:22;;;;;;;45.15;41.38;;;8.60;90.50;;;;;;5094315;28;20195;-77
2021/05/02 05:46:49;;;;;;;44.13;40.33;;;8.60;90.10;;;;;;5093513;28;20210;-78
2021/05/02 05:49:18;;;;;;;45.75;41.75;;;8.80;89.00;;;;;;5094309;28;20246;-77
2021/05/02 05:51:46;;;;;;;44.47;40.78;;;8.80;88.40;;;;;;5094310;28;20305;-77
2021/05/02 05:54:13;;;;;;;44.72;41.17;;;8.70;88.70;;;;;;5094311;28;20286;-77
2021/05/02 05:56:40;;;;;;;46.03;42.03;;;8.70;88.30;;;;;;5093521;28;20332;-77
2021/05/02 05:59:06;;;;;;;45.00;41.35;;;8.80;88.60;;;;;;5094210;28;20325;-77
2021/05/02 06:01:33;;;;;;;44.20;40.10;;;8.90;88.90;;;;;;5094134;28;20219;-77
2021/05/02 06:03:59;;;;;;;136.10;47.25;;;9.00;88.30;;;;;;5093981;28;20227;-76
2021/05/02 06:06:32;;;;;;;41.35;38.05;;;9.30;88.20;;;;;;5093540;28;20278;-77
2021/05/02 06:08:58;;;;;;;42.17;38.88;;;9.40;87.60;;;;;;5093971;28;20223;-76
2021/05/02 06:11:25;;;;;;;43.78;40.15;;;9.50;86.60;;;;;;5093901;28;20219;-77
2021/05/02 06:13:52;;;;;;;49.00;45.20;;;9.90;85.80;;;;;;5093942;28;20226;-77
2021/05/02 06:16:18;;;;;;;41.47;38.27;;;10.20;84.70;;;;;;5093265;28;20226;-77
2021/05/02 06:18:45;;;;;;;42.37;39.07;;;10.40;83.40;;;;;;5093915;28;20532;-77
2021/05/02 06:21:11;;;;;;;42.10;38.97;;;10.60;82.40;;;;;;5093820;28;20892;-77
2021/05/02 06:23:37;;;;;;;42.40;39.10;;;10.50;85.10;;;;;;5093652;28;20484;-77
2021/05/02 06:26:05;;;;;;;42.87;39.07;;;10.40;83.40;;;;;;5092196;28;20534;-77
2021/05/02 06:28:31;;;;;;;42.43;39.30;;;10.40;82.80;;;;;;5093095;28;20892;-77
2021/05/02 06:30:58;;;;;;;41.87;38.70;;;10.50;82.10;;;;;;5093860;28;20827;-77
2021/05/02 06:33:25;;;;;;;43.67;39.90;;;10.50;81.50;;;;;;5093362;28;20980;-76
2021/05/02 06:35:51;;;;;;;43.73;39.70;;;10.50;83.50;;;;;;5092807;28;20452;-76
2021/05/02 06:38:17;;;;;;;45.70;41.30;;;10.50;84.40;;;;;;5093561;28;20477;-77
2021/05/02 06:40:44;;;;;;;41.10;38.00;;;10.50;82.50;;;;;;5093263;28;20624;-77
2021/05/02 06:43:10;;;;;;;42.60;39.40;;;10.60;81.80;;;;;;5093819;28;20456;-77
2021/05/02 06:45:37;;;;;;;39.57;36.77;;;10.70;80.60;;;;;;5093017;28;20483;-77
2021/05/02 06:48:05;;;;;;;41.33;37.53;;;10.60;80.60;;;;;;5093138;28;20989;-77
2021/05/02 06:50:31;;;;;;;41.80;38.60;;;10.70;80.60;;;;;;5093111;28;20473;-77
2021/05/02 06:52:58;;;;;;;39.90;36.93;;;10.80;80.30;;;;;;5092935;28;20938;-77
2021/05/02 06:55:24;;;;;;;40.47;37.17;;;10.80;80.50;;;;;;5092910;28;20536;-77
2021/05/02 06:57:51;;;;;;;40.53;37.37;;;10.70;80.60;;;;;;5092754;28;20503;-78
2021/05/02 07:00:18;;;;;;;42.77;39.70;;;11.00;79.80;;;;;;5093060;28;20471;-77
2021/05/02 07:02:44;;;;;;;41.97;38.73;;;11.10;79.40;;;;;;5092915;28;20484;-77
2021/05/02 07:05:12;;;;;;;40.50;37.10;;;11.30;78.30;;;;;;5092915;28;20536;-77
2021/05/02 07:07:38;;;;;;;40.80;37.50;;;11.30;79.30;;;;;;5092229;28;20493;-76
2021/05/02 07:10:06;;;;;;;40.00;36.90;;;11.30;79.70;;;;;;5092811;28;20528;-77
2021/05/02 07:12:32;;;;;;;39.77;36.97;;;11.30;77.20;;;;;;5092958;28;20449;-77
2021/05/02 07:14:59;;;;;;;37.90;35.20;;;11.30;77.60;;;;;;5092879;28;20506;-77
2021/05/02 07:17:25;;;;;;;39.80;36.90;;;11.30;76.70;;;;;;5092256;28;20538;-77
2021/05/02 07:19:52;;;;;;;39.00;36.20;;;11.40;76.60;;;;;;5092599;28;20536;-77
2021/05/02 07:22:19;;;;;;;38.97;36.17;;;11.50;75.40;;;;;;5092429;28;20500;-77
2021/05/02 07:24:49;;;;;;;40.63;37.40;;;11.60;76.60;;;;;;5092682;28;20871;-77
2021/05/02 07:27:15;;;;;;;40.50;37.50;;;11.60;79.50;;;;;;5091869;28;20544;-77
2021/05/02 07:29:42;;;;;;;44.33;41.13;;;11.70;78.20;;;;;;5091907;28;20484;-77
2021/05/02 07:32:08;;;;;;;39.77;36.97;;;11.80;77.20;;;;;;5092249;28;20853;-77
2021/05/02 07:34:35;;;;;;;38.67;35.97;;;12.00;75.20;;;;;;5092324;28;20449;-76
2021/05/02 07:37:01;;;;;;;38.60;35.97;;;12.10;74.50;;;;;;5091398;28;20555;-77
2021/05/02 07:39:29;;;;;;;39.57;36.87;;;12.20;73.30;;;;;;5092415;28;20934;-77
2021/05/02 07:41:55;;;;;;;41.03;38.23;;;12.30;76.60;;;;;;5092262;28;20908;-77
2021/05/02 07:44:22;;;;;;;38.97;36.13;;;12.50;75.50;;;;;;5092450;28;20459;-78
2021/05/02 07:46:48;;;;;;;39.17;36.43;;;12.60;72.90;;;;;;5091771;28;20819;-77
2021/05/02 07:49:14;;;;;;;41.23;37.80;;;13.00;70.60;;;;;;5092120;28;20473;-78
2021/05/02 07:51:41;;;;;;;36.70;34.30;;;13.00;70.30;;;;;;5092231;28;20481;-78
2021/05/02 07:54:07;;;;;;;39.70;36.53;;;13.00;70.40;;;;;;5092369;28;20449;-77
2021/05/02 07:56:35;;;;;;;39.30;36.60;;;13.10;70.10;;;;;;5091790;28;20461;-77
2021/05/02 07:59:01;;;;;;;40.97;37.80;;;13.10;72.10;;;;;;5092296;28;20470;-77
2021/05/02 08:01:28;;;;;;;37.67;35.07;;;13.20;71.10;;;;;;5091985;28;20477;-77
2021/05/02 08:03:54;;;;;;;38.50;35.60;;;13.20;69.10;;;;;;5092056;28;20526;-77
2021/05/02 08:06:21;;;;;;;37.87;35.37;;;13.40;67.40;;;;;;5091595;28;21009;-78
2021/05/02 08:08:47;;;;;;;38.07;35.47;;;13.20;67.10;;;;;;5092144;28;21076;-77
2021/05/02 08:11:13;;;;;;;36.43;33.80;;;12.90;62.70;;;;;;5091792;28;20978;-77
2021/05/02 08:13:41;;;;;;;41.37;38.67;;;12.50;63.20;;;;;;5091979;28;20493;-77
2021/05/02 08:16:07;;;;;;;37.83;35.20;;;12.10;63.70;;;;;;5091300;28;20930;-77
2021/05/02 08:18:33;;;;;;;38.77;36.03;;;11.90;64.60;;;;;;5091878;28;20452;-77
2021/05/02 08:21:02;;;;;;;38.97;35.60;;;11.50;63.50;;;;;;5091979;28;20531;-76
2021/05/02 08:23:28;;;;;;;40.90;37.77;;;11.40;64.50;;;;;;5091952;28;20861;-76
2021/05/02 08:25:55;;;;;;;37.20;34.60;;;11.40;66.00;;;;;;5091451;28;20459;-76
2021/05/02 08:28:21;;;;;;;37.33;34.60;;;11.90;67.00;;;;;;5091680;28;20561;-76
2021/05/02 08:30:48;;;;;;;36.33;33.90;;;12.40;65.80;;;;;;5092115;28;20469;-76
2021/05/02 08:33:15;;;;;;;40.17;37.07;;;12.70;62.00;;;;;;5091801;28;20460;-77
2021/05/02 08:35:41;;;;;;;37.17;34.70;;;13.00;61.80;;;;;;5091360;28;20467;-77
2021/05/02 08:38:08;;;;;;;38.60;35.80;;;13.10;59.40;;;;;;5091855;28;20796;-76
2021/05/02 08:40:34;;;;;;;36.37;33.87;;;13.00;59.90;;;;;;5091859;28;20465;-77
2021/05/02 08:43:04;;;;;;;37.70;35.00;;;13.00;61.10;;;;;;5091819;28;20986;-76
2021/05/02 08:45:34;;;;;;;37.80;35.30;;;12.90;60.70;;;;;;5091264;28;20499;-76
2021/05/02 08:48:01;;;;;;;37.57;34.63;;;13.10;60.80;;;;;;5091833;28;20949;-77
2021/05/02 08:50:28;;;;;;;37.40;34.90;;;13.30;59.30;;;;;;5094924;28;20473;-77
2021/05/02 08:52:54;;;;;;;36.57;34.10;;;13.10;59.60;;;;;;5095616;28;20934;-76
2021/05/02 08:55:21;;;;;;;36.67;33.73;;;13.00;60.10;;;;;;5095123;28;20531;-76
2021/05/02 08:57:47;;;;;;;35.97;33.67;;;13.10;60.60;;;;;;5094941;28;20511;-76
2021/05/02 09:00:14;;;;;;;36.80;34.10;;;13.20;60.60;;;;;;5095003;28;20474;-77
2021/05/02 09:02:55;;;;;;;39.00;36.60;;;13.40;60.30;;;;;;5095177;28;20862;-77
2021/05/02 09:05:23;;;;;;;38.67;36.03;;;13.30;59.40;;;;;;5094937;28;20540;-76
2021/05/02 09:07:49;;;;;;;36.80;34.30;;;13.10;58.40;;;;;;5094599;28;20539;-76
2021/05/02 09:10:20;;;;;;;37.27;34.93;;;13.10;58.60;;;;;;5094909;28;20492;-76
2021/05/02 09:12:58;;;;;;;37.20;34.70;;;13.10;58.40;;;;;;5094956;28;20537;-77
2021/05/02 09:15:25;;;;;;;41.97;39.27;;;13.20;59.20;;;;;;5094858;28;20457;-76
2021/05/02 09:17:58;;;;;;;35.93;33.60;;;13.30;57.80;;;;;;5094620;28;20453;-77
2021/05/02 09:20:42;;;;;;;39.77;37.00;;;13.00;58.30;;;;;;5094900;28;20522;-76
2021/05/02 09:23:08;;;;;;;40.47;37.60;;;12.90;59.00;;;;;;5094809;28;20576;-77
2021/05/02 09:25:45;;;;;;;38.67;35.87;;;12.90;59.80;;;;;;5094258;28;20485;-76
2021/05/02 09:28:12;;;;;;;38.90;36.20;;;13.10;60.70;;;;;;5094550;28;20453;-76
2021/05/02 09:30:38;;;;;;;40.47;37.73;;;13.10;58.40;;;;;;5094282;28;20473;-77
2021/05/02 09:33:05;;;;;;;40.97;38.17;;;12.90;58.00;;;;;;5094705;28;20567;-76
2021/05/02 09:35:33;;;;;;;40.27;37.47;;;13.00;63.40;;;;;;5093680;28;20448;-76
2021/05/02 09:38:14;;;;;;;38.87;35.90;;;13.20;59.10;;;;;;5094653;28;20445;-77
2021/05/02 09:40:51;;;;;;;37.90;35.30;;;13.30;57.90;;;;;;5094400;28;20538;-77
2021/05/02 09:43:32;;;;;;;41.00;37.00;;;13.50;56.90;;;;;;5094381;28;20476;-80
2021/05/02 09:46:27;;;;;;;38.33;35.63;;;13.30;57.20;;;;;;5093704;28;20840;-78
2021/05/02 09:48:58;;;;;;;41.10;38.23;;;13.40;57.40;;;;;;5094259;28;20476;-77
2021/05/02 09:51:27;;;;;;;42.43;39.47;;;13.10;57.50;;;;;;5094200;28;20559;-77
2021/05/02 09:54:05;;;;;;;38.93;35.93;;;12.70;57.80;;;;;;5094320;28;20547;-77
2021/05/02 09:56:36;;;;;;;39.07;36.47;;;12.40;58.70;;;;;;5093538;28;20453;-78
2021/05/02 09:59:03;;;;;;;39.37;36.43;;;12.20;60.00;;;;;;5094310;28;20562;-77
2021/05/02 10:01:30;;;;;;;40.67;37.47;;;11.80;61.70;;;;;;5093812;28;20473;-78
2021/05/02 10:03:59;;;;;;;39.20;36.30;;;11.90;62.00;;;;;;5093948;28;20956;-78
2021/05/02 10:06:31;;;;;;;39.53;36.70;;;12.00;63.20;;;;;;5093476;28;20935;-77
2021/05/02 10:08:58;;;;;;;39.40;36.70;;;12.20;61.10;;;;;;5093736;28;20477;-77
2021/05/02 10:11:25;;;;;;;40.87;37.77;;;12.00;62.70;;;;;;5093920;28;20475;-77
2021/05/02 10:13:53;;;;;;;40.00;37.03;;;12.20;62.40;;;;;;5093934;28;20445;-77
2021/05/02 10:16:19;;;;;;;41.00;38.30;;;12.40;62.70;;;;;;5093128;28;20450;-77
2021/05/02 10:18:46;;;;;;;39.43;36.33;;;12.50;59.50;;;;;;5093723;28;20531;-77
2021/05/02 10:21:13;;;;;;;41.77;38.60;;;12.40;59.90;;;;;;5093488;28;21014;-77
2021/05/02 10:23:41;;;;;;;39.80;37.00;;;12.50;59.80;;;;;;5093391;28;20445;-77
2021/05/02 10:26:07;;;;;;;40.07;37.27;;;12.70;59.70;;;;;;5092970;28;20929;-77
2021/05/02 10:28:36;;;;;;;38.73;36.00;;;12.90;59.20;;;;;;5092819;28;20556;-77
2021/05/02 10:31:05;;;;;;;44.33;41.43;;;12.90;57.60;;;;;;5093546;28;20549;-77
2021/05/02 10:33:33;;;;;;;39.20;36.53;;;12.90;58.00;;;;;;5093467;28;20449;-77
2021/05/02 10:36:02;;;;;;;38.63;36.03;;;12.50;56.10;;;;;;5092544;28;20564;-76
2021/05/02 10:38:46;;;;;;;38.27;35.63;;;12.40;57.10;;;;;;5093140;28;20814;-77
2021/05/02 10:41:45;;;;;;;37.63;35.20;;;12.40;55.90;;;;;;5093215;28;20556;-76
2021/05/02 10:44:39;;;;;;;38.67;35.93;;;12.70;57.20;;;;;;5048415;28;20453;-77
2021/05/02 10:47:06;;;;;;;39.20;36.43;;;13.10;56.10;;;;;;5045387;28;20552;-77
2021/05/02 10:49:53;;;;;;;39.10;36.60;;;13.30;54.60;;;;;;5093096;28;20801;-77
2021/05/02 10:52:33;;;;;;;38.03;35.40;;;13.40;55.30;;;;;;5092927;28;20529;-77
2021/05/02 10:55:12;;;;;;;39.73;36.73;;;13.60;56.20;;;;;;5092932;28;20494;-77
2021/05/02 10:57:38;;;;;;;38.47;35.87;;;14.00;54.30;;;;;;5092531;28;20844;-77
2021/05/02 11:00:09;;;;;;;36.90;34.50;;;14.50;54.20;;;;;;5092879;28;20445;-77
2021/05/02 11:02:41;;;;;;;39.43;36.63;;;14.80;52.10;;;;;;5093141;28;20465;-77
2021/05/02 11:05:10;;;;;;;37.43;35.03;;;14.90;52.60;;;;;;5092838;28;20449;-77
2021/05/02 11:07:39;;;;;;;38.00;35.40;;;15.20;52.30;;;;;;5092288;28;20539;-77
2021/05/02 11:10:09;;;;;;;37.67;35.00;;;15.20;52.20;;;;;;5092527;28;20477;-77
2021/05/02 11:12:35;;;;;;;36.83;34.47;;;15.10;51.70;;;;;;5092116;28;20460;-77
2021/05/02 11:15:22;;;;;;;37.47;34.97;;;15.10;51.30;;;;;;5092703;28;20464;-77
2021/05/02 11:17:49;;;;;;;38.17;35.70;;;15.20;50.90;;;;;;5092086;28;20453;-77
2021/05/02 11:20:45;;;;;;;44.87;41.87;;;14.80;51.50;;;;;;5092713;28;20453;-76
2021/05/02 11:23:12;;;;;;;39.50;36.90;;;14.40;53.20;;;;;;5092718;28;20460;-77
2021/05/02 11:25:40;;;;;;;39.43;36.67;;;14.00;54.10;;;;;;5092128;28;20536;-77
2021/05/02 11:28:10;;;;;;;38.70;36.10;;;13.90;53.60;;;;;;5092379;28;20819;-77
2021/05/02 11:30:46;;;;;;;40.10;37.40;;;13.70;53.60;;;;;;5091696;28;20820;-77
2021/05/02 11:33:23;;;;;;;39.77;37.07;;;13.50;55.70;;;;;;5092486;28;20484;-77
2021/05/02 11:35:54;;;;;;;37.13;34.73;;;13.10;58.70;;;;;;5091636;28;20544;-77
2021/05/02 11:38:45;;;;;;;35.50;33.30;;;12.40;62.50;;;;;;5092308;28;20503;-76
2021/05/02 11:41:12;;;;;;;36.97;34.53;;;12.30;62.70;;;;;;5092244;28;20538;-77
2021/05/02 11:43:41;;;;;;;35.90;33.70;;;12.10;61.40;;;;;;5092188;28;20950;-77
2021/05/02 11:46:16;;;;;;;35.00;32.80;;;11.90;61.50;;;;;;5091691;28;20476;-77
2021/05/02 11:48:45;;;;;;;41.73;38.80;;;11.70;61.70;;;;;;5092154;28;20576;-77
2021/05/02 11:51:19;;;;;;;39.83;37.13;;;11.70;64.10;;;;;;5091894;28;20499;-77
2021/05/02 11:53:47;;;;;;;39.97;37.37;;;11.90;64.70;;;;;;5092319;28;20952;-77
2021/05/02 11:56:19;;;;;;;38.57;35.87;;;12.30;64.90;;;;;;5091433;28;20470;-77
2021/05/02 11:58:46;;;;;;;39.50;36.60;;;12.30;64.90;;;;;;5092080;28;20445;-77
2021/05/02 12:01:18;;;;;;;40.00;37.30;;;12.50;65.50;;;;;;5091902;28;20479;-77
2021/05/02 12:03:46;;;;;;;39.93;37.33;;;12.70;64.50;;;;;;5091905;28;21026;-77
2021/05/02 12:06:27;;;;;;;42.17;39.27;;;12.60;64.30;;;;;;5091517;28;20481;-77
2021/05/02 12:08:55;;;;;;;40.63;38.03;;;12.70;62.90;;;;;;5091880;28;20477;-78
2021/05/02 12:11:22;;;;;;;36.57;34.17;;;12.80;63.10;;;;;;5091890;28;20831;-77
2021/05/02 12:13:51;;;;;;;35.13;32.83;;;12.80;60.90;;;;;;5091888;28;20567;-77
2021/05/02 12:16:19;;;;;;;38.27;35.67;;;12.60;59.90;;;;;;5091390;28;20461;-77
2021/05/02 12:18:49;;;;;;;34.60;32.30;;;12.50;60.20;;;;;;5092042;28;20471;-76
2021/05/02 12:21:19;;;;;;;35.10;32.67;;;12.60;61.20;;;;;;5091806;28;20477;-77
2021/05/02 12:23:46;;;;;;;34.20;31.93;;;12.40;62.00;;;;;;5092712;28;20450;-77
2021/05/02 12:26:14;;;;;;;33.83;31.47;;;12.20;63.20;;;;;;5095428;28;20531;-77
2021/05/02 12:28:41;;;;;;;34.37;32.17;;;12.20;63.30;;;;;;5095252;28;20472;-77
2021/05/02 12:31:11;;;;;;;34.10;31.90;;;12.00;65.30;;;;;;5095722;28;20468;-77
2021/05/02 12:33:39;;;;;;;35.83;33.50;;;11.50;69.10;;;;;;5095735;28;20814;-76
2021/05/02 12:36:08;;;;;;;31.53;29.60;;;11.20;72.00;;;;;;5094815;28;20457;-76
2021/05/02 12:38:35;;;;;;;29.30;27.27;;;11.10;74.20;;;;;;5095698;28;20445;-76